createdAt,value
2023-01-21T00:08:20.847Z,1
2023-01-21T00:18:20.788Z,1
2023-01-21T00:28:20.727Z,1
2023-01-21T00:38:20.653Z,1
2023-01-21T00:48:20.585Z,1
2023-01-21T00:58:20.520Z,1
2023-01-21T01:08:20.556Z,1
2023-01-21T01:18:20.379Z,1
2023-01-21T01:28:20.295Z,1
2023-01-21T01:38:20.218Z,1
2023-01-21T01:48:20.147Z,1
2023-01-21T01:58:20.047Z,1
2023-01-21T02:08:20.022Z,1
2023-01-21T02:18:19.947Z,1
2023-01-21T02:28:19.869Z,1
2023-01-21T02:38:19.917Z,1
2023-01-21T02:48:19.742Z,1
2023-01-21T02:58:19.631Z,1
2023-01-21T03:08:19.593Z,1
2023-01-21T03:18:19.493Z,1
2023-01-21T03:28:19.461Z,1
2023-01-21T03:38:19.400Z,1
2023-01-21T03:48:19.319Z,1
2023-01-21T03:58:19.212Z,1
2023-01-21T04:08:19.130Z,1
2023-01-21T04:18:19.056Z,1
2023-01-21T04:28:19.022Z,1
2023-01-21T04:38:18.967Z,1
2023-01-21T04:48:18.851Z,1
2023-01-21T04:58:18.763Z,1
2023-01-21T05:08:18.705Z,1
2023-01-21T05:18:18.621Z,1
2023-01-21T05:28:18.559Z,1
2023-01-21T05:38:18.589Z,1
2023-01-21T05:48:18.412Z,1
2023-01-21T05:58:18.324Z,1
2023-01-21T06:08:18.251Z,4
2023-01-21T06:18:18.209Z,4
2023-01-21T06:28:18.155Z,8
2023-01-21T06:38:18.042Z,14
2023-01-21T06:48:17.991Z,25
2023-01-21T06:58:17.921Z,23
2023-01-21T07:08:17.851Z,26
2023-01-21T07:18:17.776Z,33
2023-01-21T07:28:17.718Z,33
2023-01-21T07:38:17.597Z,42
2023-01-21T07:48:17.560Z,49
2023-01-21T07:58:17.462Z,39
2023-01-21T08:08:17.381Z,26
2023-01-21T08:18:17.432Z,32
2023-01-21T08:28:17.234Z,36
2023-01-21T08:38:17.187Z,45
2023-01-21T08:48:17.109Z,52
2023-01-21T08:58:17.051Z,58
2023-01-21T09:08:17.098Z,61
2023-01-21T09:18:16.899Z,68
2023-01-21T09:28:16.919Z,78
2023-01-21T09:38:16.736Z,93
2023-01-21T09:48:16.652Z,89
2023-01-21T09:58:16.718Z,91
2023-01-21T10:08:16.629Z,94
2023-01-21T10:18:16.466Z,99
2023-01-21T10:28:16.488Z,99
2023-01-21T10:38:16.394Z,99
2023-01-21T10:48:16.230Z,99
2023-01-21T10:58:16.130Z,99
2023-01-21T11:08:16.080Z,99
2023-01-21T11:18:16.082Z,99
2023-01-21T11:28:17.335Z,99
2023-01-21T11:38:15.932Z,99
2023-01-21T11:48:15.815Z,99
2023-01-21T11:58:15.690Z,99
2023-01-21T12:08:15.758Z,99
2023-01-21T12:18:15.677Z,99
2023-01-21T12:28:15.494Z,99
2023-01-21T12:38:15.481Z,99
2023-01-21T12:48:15.583Z,99
2023-01-21T12:58:15.265Z,99
2023-01-21T13:08:15.253Z,99
2023-01-21T13:18:15.160Z,99
2023-01-21T13:28:15.096Z,99
2023-01-21T13:38:15.026Z,99
2023-01-21T13:48:14.996Z,99
2023-01-21T13:58:14.858Z,99
2023-01-21T14:08:14.757Z,99
2023-01-21T14:18:14.731Z,99
2023-01-21T14:28:14.758Z,99
2023-01-21T14:38:14.594Z,99
2023-01-21T14:48:14.513Z,99
2023-01-21T14:58:14.410Z,99
2023-01-21T15:08:14.325Z,99
2023-01-21T15:18:14.251Z,99
2023-01-21T15:28:14.256Z,99
2023-01-21T15:38:14.127Z,99
2023-01-21T15:48:14.236Z,1
2023-01-21T15:58:14.011Z,1
2023-01-21T16:08:13.891Z,1
2023-01-21T16:18:13.822Z,1
2023-01-21T16:28:13.791Z,1
2023-01-21T16:38:13.697Z,1
2023-01-21T16:48:13.629Z,1
2023-01-21T16:58:13.522Z,1
2023-01-21T17:08:13.462Z,1
2023-01-21T17:18:13.386Z,1
2023-01-21T17:28:13.344Z,1
2023-01-21T17:38:13.269Z,1
2023-01-21T17:48:14.721Z,1
2023-01-21T17:58:13.092Z,1
2023-01-21T18:08:13.033Z,1
2023-01-21T18:18:12.947Z,1
2023-01-21T18:28:12.881Z,1
2023-01-21T18:38:12.846Z,1
2023-01-21T18:48:12.760Z,1
2023-01-21T18:58:12.686Z,1
2023-01-21T19:08:12.619Z,1
2023-01-21T19:18:12.524Z,1
2023-01-21T19:28:12.519Z,1
2023-01-21T19:38:12.471Z,1
2023-01-21T19:48:12.326Z,1
2023-01-21T19:58:12.260Z,1
2023-01-21T20:08:12.185Z,1
2023-01-21T20:18:12.125Z,1
2023-01-21T20:28:12.020Z,99
2023-01-21T20:38:11.954Z,99
2023-01-21T20:48:11.934Z,99
2023-01-21T20:58:11.809Z,99
2023-01-21T21:08:11.747Z,96
2023-01-21T21:18:11.651Z,59
2023-01-21T21:28:11.604Z,69
2023-01-21T21:38:11.539Z,66
2023-01-21T21:48:11.447Z,29
2023-01-21T21:58:11.353Z,15
2023-01-21T22:08:11.341Z,14
2023-01-21T22:18:11.215Z,17
2023-01-21T22:28:11.126Z,12
2023-01-21T22:38:11.065Z,2
2023-01-21T22:48:10.984Z,1
2023-01-21T22:58:10.948Z,1
2023-01-21T23:08:10.874Z,1
2023-01-21T23:18:10.783Z,1
2023-01-21T23:28:10.830Z,1
2023-01-21T23:38:10.633Z,1
2023-01-21T23:48:10.576Z,1
2023-01-21T23:58:10.492Z,1
